createdAt,value
2018-09-29T00:01:22.010Z,13.20
2018-09-29T00:03:50.466Z,13.20
2018-09-29T00:06:18.926Z,13.10
2018-09-29T00:08:47.328Z,13.20
2018-09-29T00:11:15.812Z,13.20
2018-09-29T00:13:44.255Z,13.20
2018-09-29T00:16:12.692Z,13.20
2018-09-29T00:18:41.164Z,13.10
2018-09-29T00:21:09.658Z,13.10
2018-09-29T00:23:38.110Z,13.10
2018-09-29T00:26:06.541Z,13.10
2018-09-29T00:28:34.989Z,13.00
2018-09-29T00:31:03.410Z,13.10
2018-09-29T00:33:31.864Z,13.10
2018-09-29T00:36:00.337Z,13.10
2018-09-29T00:38:29.138Z,13.10
2018-09-29T00:40:57.824Z,13.10
2018-09-29T00:43:26.271Z,13.00
2018-09-29T00:45:54.720Z,13.00
2018-09-29T00:48:23.157Z,12.90
2018-09-29T00:50:51.668Z,12.90
2018-09-29T00:53:20.107Z,12.90
2018-09-29T00:55:48.557Z,12.90
2018-09-29T00:58:17.001Z,12.80
2018-09-29T01:00:45.461Z,12.80
2018-09-29T01:03:13.900Z,12.80
2018-09-29T01:05:42.317Z,12.80
2018-09-29T01:08:10.725Z,12.70
2018-09-29T01:10:39.185Z,12.70
2018-09-29T01:13:07.957Z,12.70
2018-09-29T01:15:36.408Z,12.60
2018-09-29T01:18:04.849Z,12.60
2018-09-29T01:20:33.237Z,12.60
2018-09-29T01:23:01.713Z,12.50
2018-09-29T01:25:30.120Z,12.40
2018-09-29T01:27:58.556Z,12.40
2018-09-29T01:30:26.993Z,12.40
2018-09-29T01:32:55.503Z,12.40
2018-09-29T01:35:23.968Z,12.30
2018-09-29T01:37:52.695Z,12.20
2018-09-29T01:40:21.353Z,12.20
2018-09-29T01:42:49.817Z,12.30
2018-09-29T01:45:18.234Z,12.30
2018-09-29T01:47:46.657Z,12.30
2018-09-29T01:50:15.113Z,12.30
2018-09-29T01:52:43.565Z,12.20
2018-09-29T01:55:11.992Z,12.20
2018-09-29T01:57:40.437Z,12.30
2018-09-29T02:00:08.894Z,12.30
2018-09-29T02:02:37.386Z,12.30
2018-09-29T02:05:05.845Z,12.30
2018-09-29T02:07:34.296Z,12.30
2018-09-29T02:10:02.761Z,12.30
2018-09-29T02:12:31.237Z,12.20
2018-09-29T02:14:59.668Z,12.20
2018-09-29T02:17:28.112Z,12.20
2018-09-29T02:19:56.635Z,12.10
2018-09-29T02:22:25.065Z,12.10
2018-09-29T02:24:53.503Z,12.10
2018-09-29T02:27:21.945Z,12.10
2018-09-29T02:29:50.396Z,12.00
2018-09-29T02:32:18.952Z,12.00
2018-09-29T02:34:47.442Z,12.00
2018-09-29T02:37:15.886Z,12.00
2018-09-29T02:39:44.334Z,12.00
2018-09-29T02:42:12.760Z,12.10
2018-09-29T02:44:41.216Z,12.10
2018-09-29T02:47:09.731Z,12.10
2018-09-29T02:49:38.792Z,12.00
2018-09-29T02:52:07.261Z,11.90
2018-09-29T02:54:35.722Z,12.00
2018-09-29T02:57:04.150Z,12.00
2018-09-29T02:59:32.596Z,12.00
2018-09-29T03:02:01.098Z,11.90
2018-09-29T03:04:29.542Z,11.90
2018-09-29T03:06:58.014Z,11.80
2018-09-29T03:09:26.450Z,11.80
2018-09-29T03:11:54.895Z,11.90
2018-09-29T03:14:23.345Z,11.70
2018-09-29T03:16:51.877Z,11.70
2018-09-29T03:19:20.416Z,11.70
2018-09-29T03:21:48.861Z,11.70
2018-09-29T03:24:17.297Z,11.60
2018-09-29T03:26:45.803Z,11.60
2018-09-29T03:29:14.260Z,11.60
2018-09-29T03:31:42.989Z,11.60
2018-09-29T03:34:11.231Z,11.60
2018-09-29T03:36:39.700Z,11.60
2018-09-29T03:39:11.134Z,11.60
2018-09-29T03:41:39.797Z,11.60
2018-09-29T03:44:08.812Z,11.60
2018-09-29T03:46:37.237Z,11.50
2018-09-29T03:49:05.822Z,11.50
2018-09-29T03:51:34.284Z,11.40
2018-09-29T03:54:02.731Z,11.50
2018-09-29T03:56:31.261Z,11.60
2018-09-29T03:58:59.689Z,11.60
2018-09-29T04:01:28.145Z,11.50
2018-09-29T04:03:56.574Z,11.50
2018-09-29T04:06:25.041Z,11.50
2018-09-29T04:08:53.486Z,11.40
2018-09-29T04:11:21.943Z,11.40
2018-09-29T04:13:50.606Z,11.40
2018-09-29T04:16:19.021Z,11.50
2018-09-29T04:18:47.485Z,11.40
2018-09-29T04:21:15.982Z,11.30
2018-09-29T04:23:44.426Z,11.40
2018-09-29T04:26:12.875Z,11.40
2018-09-29T04:28:41.325Z,11.40
2018-09-29T04:31:09.751Z,11.30
2018-09-29T04:33:38.314Z,11.30
2018-09-29T04:36:06.741Z,11.30
2018-09-29T04:38:35.217Z,11.30
2018-09-29T04:41:03.641Z,11.30
2018-09-29T04:43:32.104Z,11.30
2018-09-29T04:46:00.569Z,11.30
2018-09-29T04:48:28.977Z,11.30
2018-09-29T04:50:57.683Z,11.20
2018-09-29T04:53:26.121Z,11.20
2018-09-29T04:55:54.550Z,11.20
2018-09-29T04:58:23.032Z,11.20
2018-09-29T05:00:51.509Z,11.20
2018-09-29T05:03:19.956Z,11.20
2018-09-29T05:05:48.356Z,11.20
2018-09-29T05:08:16.805Z,11.20
2018-09-29T05:10:45.262Z,11.20
2018-09-29T05:13:13.689Z,11.10
2018-09-29T05:15:42.173Z,11.10
2018-09-29T05:18:10.628Z,11.10
2018-09-29T05:20:39.152Z,11.10
2018-09-29T05:23:07.684Z,11.10
2018-09-29T05:25:36.201Z,11.10
2018-09-29T05:28:04.693Z,11.10
2018-09-29T05:30:33.200Z,11.10
2018-09-29T05:33:01.636Z,11.10
2018-09-29T05:35:30.232Z,11.10
2018-09-29T05:37:58.786Z,11.10
2018-09-29T05:40:27.310Z,11.10
2018-09-29T05:42:56.056Z,11.10
2018-09-29T05:45:24.580Z,11.10
2018-09-29T05:47:53.222Z,11.10
2018-09-29T05:50:21.832Z,11.10
2018-09-29T05:52:50.346Z,11.10
2018-09-29T05:55:19.076Z,11.10
2018-09-29T05:57:47.637Z,11.10
2018-09-29T06:00:16.203Z,11.10
2018-09-29T06:02:44.770Z,11.10
2018-09-29T06:05:13.316Z,11.20
2018-09-29T06:07:41.777Z,11.20
2018-09-29T06:10:10.348Z,11.20
2018-09-29T06:12:39.014Z,11.20
2018-09-29T06:15:07.692Z,11.20
2018-09-29T06:17:36.196Z,11.20
2018-09-29T06:20:05.078Z,11.10
2018-09-29T06:22:33.743Z,11.00
2018-09-29T06:25:02.361Z,11.10
2018-09-29T06:27:31.011Z,11.10
2018-09-29T06:29:59.624Z,11.10
2018-09-29T06:32:28.198Z,11.10
2018-09-29T06:34:56.722Z,11.20
2018-09-29T06:37:25.282Z,11.10
2018-09-29T06:39:53.850Z,11.10
2018-09-29T06:42:22.361Z,11.10
2018-09-29T06:44:51.081Z,11.10
2018-09-29T06:47:19.781Z,11.10
2018-09-29T06:49:48.398Z,11.10
2018-09-29T06:52:16.931Z,11.20
2018-09-29T06:54:45.441Z,11.30
2018-09-29T06:57:14.033Z,11.20
2018-09-29T06:59:42.526Z,11.30
2018-09-29T07:02:11.293Z,11.30
2018-09-29T07:04:39.889Z,11.40
2018-09-29T07:07:08.454Z,11.40
2018-09-29T07:09:37.064Z,11.50
2018-09-29T07:12:05.650Z,11.40
2018-09-29T07:14:34.099Z,11.50
2018-09-29T07:17:05.296Z,11.50
2018-09-29T07:19:34.126Z,11.60
2018-09-29T07:22:02.754Z,11.60
2018-09-29T07:24:31.265Z,11.70
2018-09-29T07:26:59.998Z,11.80
2018-09-29T07:29:28.595Z,11.90
2018-09-29T07:31:57.150Z,11.90
2018-09-29T07:34:25.984Z,11.90
2018-09-29T07:36:54.966Z,11.90
2018-09-29T07:39:23.403Z,11.80
2018-09-29T07:41:51.919Z,12.10
2018-09-29T07:44:20.601Z,12.10
2018-09-29T07:46:49.090Z,12.20
2018-09-29T07:49:18.146Z,12.20
2018-09-29T07:51:46.580Z,12.20
2018-09-29T07:54:15.204Z,12.30
2018-09-29T07:56:43.820Z,12.40
2018-09-29T07:59:12.373Z,12.40
2018-09-29T08:01:40.953Z,12.60
2018-09-29T08:04:09.520Z,12.60
2018-09-29T08:06:38.028Z,12.60
2018-09-29T08:09:07.068Z,12.80
2018-09-29T08:11:35.819Z,12.90
2018-09-29T08:14:04.537Z,13.00
2018-09-29T08:16:33.008Z,13.30
2018-09-29T08:19:01.465Z,13.50
2018-09-29T08:21:30.036Z,13.60
2018-09-29T08:23:58.931Z,13.70
2018-09-29T08:26:27.452Z,13.60
2018-09-29T08:28:56.041Z,13.70
2018-09-29T08:31:24.804Z,13.80
2018-09-29T08:33:53.440Z,13.90
2018-09-29T08:36:21.941Z,14.00
2018-09-29T08:38:50.469Z,14.30
2018-09-29T08:41:19.049Z,14.30
2018-09-29T08:43:47.590Z,14.50
2018-09-29T08:46:16.189Z,14.30
2018-09-29T08:48:44.940Z,14.30
2018-09-29T08:51:13.576Z,14.30
2018-09-29T08:53:42.309Z,14.40
2018-09-29T08:56:10.820Z,14.70
2018-09-29T08:58:39.313Z,14.70
2018-09-29T09:01:07.797Z,14.90
2018-09-29T09:03:36.310Z,14.60
2018-09-29T09:06:04.949Z,14.70
2018-09-29T09:08:33.597Z,14.80
2018-09-29T09:11:02.026Z,14.50
2018-09-29T09:13:31.318Z,14.60
2018-09-29T09:15:59.844Z,15.00
2018-09-29T09:18:28.436Z,15.30
2018-09-29T09:20:56.917Z,15.40
2018-09-29T09:23:25.523Z,15.40
2018-09-29T09:25:54.065Z,15.50
2018-09-29T09:28:22.569Z,15.60
2018-09-29T09:30:51.221Z,15.50
2018-09-29T09:33:19.654Z,15.90
2018-09-29T09:35:48.163Z,16.10
2018-09-29T09:38:16.681Z,15.90
2018-09-29T09:40:45.185Z,15.50
2018-09-29T09:43:13.682Z,15.80
2018-09-29T09:45:42.122Z,16.00
2018-09-29T09:48:10.595Z,15.60
2018-09-29T09:50:39.082Z,16.00
2018-09-29T09:53:07.621Z,16.40
2018-09-29T09:55:36.300Z,16.40
2018-09-29T09:58:04.763Z,17.10
2018-09-29T10:00:38.706Z,18.10
2018-09-29T10:03:12.511Z,18.40
2018-09-29T10:05:41.109Z,19.20
2018-09-29T10:08:09.561Z,19.60
2018-09-29T10:10:38.036Z,20.90
2018-09-29T10:13:06.524Z,21.20
2018-09-29T10:15:35.004Z,21.90
2018-09-29T10:18:03.710Z,21.40
2018-09-29T10:20:32.197Z,21.80
2018-09-29T10:23:00.678Z,21.90
2018-09-29T10:25:29.125Z,22.50
2018-09-29T10:27:57.594Z,22.70
2018-09-29T10:30:26.109Z,23.00
2018-09-29T10:32:54.556Z,22.70
2018-09-29T10:35:23.174Z,23.00
2018-09-29T10:37:51.703Z,23.60
2018-09-29T10:40:20.189Z,22.70
2018-09-29T10:42:48.653Z,23.00
2018-09-29T10:45:17.108Z,22.80
2018-09-29T10:47:45.659Z,23.60
2018-09-29T10:50:14.161Z,24.00
2018-09-29T10:52:43.388Z,24.10
2018-09-29T10:55:12.109Z,23.60
2018-09-29T10:57:40.736Z,23.50
2018-09-29T11:00:09.257Z,24.00
2018-09-29T11:02:37.915Z,24.60
2018-09-29T11:05:06.482Z,24.50
2018-09-29T11:07:34.989Z,24.80
2018-09-29T11:10:03.478Z,24.40
2018-09-29T11:12:31.964Z,23.80
2018-09-29T11:15:00.474Z,24.10
2018-09-29T11:17:29.014Z,24.90
2018-09-29T11:19:57.472Z,25.40
2018-09-29T11:22:26.007Z,25.50
2018-09-29T11:24:54.548Z,25.20
2018-09-29T11:27:23.149Z,24.50
2018-09-29T11:29:51.736Z,24.30
2018-09-29T11:32:20.173Z,23.90
2018-09-29T11:34:48.588Z,24.50
2018-09-29T11:37:17.055Z,24.00
2018-09-29T11:39:45.550Z,24.40
2018-09-29T11:42:14.009Z,25.00
2018-09-29T11:44:42.504Z,24.20
2018-09-29T11:47:10.977Z,23.60
2018-09-29T11:49:39.457Z,24.10
2018-09-29T11:52:07.889Z,24.00
2018-09-29T11:54:36.354Z,24.40
2018-09-29T11:57:04.796Z,24.70
2018-09-29T11:59:33.820Z,24.70
2018-09-29T12:02:02.395Z,24.50
2018-09-29T12:04:31.689Z,24.40
2018-09-29T12:07:00.427Z,24.00
2018-09-29T12:09:29.048Z,25.20
2018-09-29T12:11:57.469Z,24.80
2018-09-29T12:14:25.904Z,24.10
2018-09-29T12:16:54.413Z,24.50
2018-09-29T12:19:22.904Z,23.80
2018-09-29T12:21:51.387Z,24.20
2018-09-29T12:24:19.845Z,24.60
2018-09-29T12:26:48.338Z,23.40
2018-09-29T12:29:16.865Z,24.20
2018-09-29T12:31:46.169Z,24.70
2018-09-29T12:34:14.594Z,25.00
2018-09-29T12:36:43.096Z,24.10
2018-09-29T12:39:11.829Z,24.40
2018-09-29T12:41:40.212Z,24.20
2018-09-29T12:44:08.827Z,23.80
2018-09-29T12:46:37.269Z,24.20
2018-09-29T12:49:05.940Z,24.60
2018-09-29T12:51:34.374Z,24.70
2018-09-29T12:54:02.840Z,24.00
2018-09-29T12:56:31.337Z,23.50
2018-09-29T12:58:59.829Z,23.80
2018-09-29T13:01:28.240Z,23.40
2018-09-29T13:03:56.721Z,23.00
2018-09-29T13:06:25.161Z,23.40
2018-09-29T13:08:53.577Z,23.60
2018-09-29T13:11:22.079Z,23.60
2018-09-29T13:13:50.581Z,24.00
2018-09-29T13:16:19.021Z,23.30
2018-09-29T13:18:47.453Z,23.50
2018-09-29T13:21:15.908Z,23.70
2018-09-29T13:23:44.360Z,22.80
2018-09-29T13:26:12.805Z,23.70
2018-09-29T13:28:41.259Z,23.60
2018-09-29T13:31:09.660Z,23.10
2018-09-29T13:33:38.161Z,22.30
2018-09-29T13:36:06.692Z,22.80
2018-09-29T13:38:35.225Z,23.30
2018-09-29T13:41:03.640Z,24.00
2018-09-29T13:43:32.069Z,24.00
2018-09-29T13:46:00.558Z,24.20
2018-09-29T13:48:28.973Z,23.50
2018-09-29T13:50:57.445Z,23.40
2018-09-29T13:53:25.895Z,23.50
2018-09-29T13:55:54.559Z,23.90
2018-09-29T13:58:23.097Z,23.50
2018-09-29T14:00:51.545Z,23.40
2018-09-29T14:03:20.036Z,23.10
2018-09-29T14:05:48.493Z,23.60
2018-09-29T14:08:16.914Z,23.80
2018-09-29T14:10:45.365Z,23.40
2018-09-29T14:13:13.849Z,22.80
2018-09-29T14:15:42.288Z,23.40
2018-09-29T14:18:10.733Z,23.70
2018-09-29T14:20:39.182Z,23.60
2018-09-29T14:23:07.616Z,23.70
2018-09-29T14:25:36.033Z,23.50
2018-09-29T14:28:04.521Z,23.30
2018-09-29T14:30:32.987Z,23.40
2018-09-29T14:33:01.456Z,23.10
2018-09-29T14:35:29.968Z,23.10
2018-09-29T14:37:58.430Z,22.90
2018-09-29T14:40:26.877Z,22.60
2018-09-29T14:42:55.307Z,22.30
2018-09-29T14:45:23.731Z,23.30
2018-09-29T14:47:52.166Z,23.30
2018-09-29T14:50:20.717Z,22.90
2018-09-29T14:52:49.200Z,22.10
2018-09-29T14:55:17.644Z,22.60
2018-09-29T14:57:46.103Z,22.30
2018-09-29T15:00:14.545Z,22.40
2018-09-29T15:02:43.014Z,22.80
2018-09-29T15:05:11.466Z,22.20
2018-09-29T15:07:39.987Z,22.50
2018-09-29T15:10:08.458Z,21.10
2018-09-29T15:12:36.905Z,21.20
2018-09-29T15:15:06.604Z,21.10
2018-09-29T15:17:35.442Z,21.60
2018-09-29T15:20:04.032Z,21.70
2018-09-29T15:22:32.638Z,21.70
2018-09-29T15:25:01.288Z,21.80
2018-09-29T15:27:29.741Z,21.30
2018-09-29T15:29:58.245Z,20.10
2018-09-29T15:32:26.688Z,20.40
2018-09-29T15:34:55.184Z,20.30
2018-09-29T15:37:24.005Z,20.00
2018-09-29T15:39:53.538Z,19.50
2018-09-29T15:42:22.134Z,19.60
2018-09-29T15:44:50.982Z,19.50
2018-09-29T15:47:19.913Z,18.90
2018-09-29T15:49:48.708Z,19.10
2018-09-29T15:52:17.544Z,19.20
2018-09-29T15:54:46.373Z,19.00
2018-09-29T15:57:15.005Z,19.10
2018-09-29T15:59:43.789Z,19.10
2018-09-29T16:02:12.716Z,18.80
2018-09-29T16:04:41.419Z,18.50
2018-09-29T16:07:10.259Z,18.40
2018-09-29T16:09:38.934Z,18.40
2018-09-29T16:12:07.525Z,17.60
2018-09-29T16:14:36.213Z,16.80
2018-09-29T16:17:04.929Z,16.80
2018-09-29T16:19:33.736Z,16.90
2018-09-29T16:22:02.394Z,16.60
2018-09-29T16:24:31.153Z,16.80
2018-09-29T16:26:59.829Z,16.70
2018-09-29T16:29:28.749Z,16.50
2018-09-29T16:31:57.692Z,16.40
2018-09-29T16:34:26.645Z,16.30
2018-09-29T16:36:55.424Z,16.10
2018-09-29T16:39:24.422Z,16.10
2018-09-29T16:41:53.279Z,16.00
2018-09-29T16:44:22.133Z,15.90
2018-09-29T16:46:50.973Z,15.90
2018-09-29T16:49:19.781Z,15.70
2018-09-29T16:51:48.509Z,15.50
2018-09-29T16:54:17.390Z,15.40
2018-09-29T16:56:46.346Z,15.00
2018-09-29T16:59:15.207Z,15.00
2018-09-29T17:01:44.244Z,14.90
2018-09-29T17:04:13.324Z,14.90
2018-09-29T17:06:42.296Z,14.70
2018-09-29T17:09:12.333Z,14.30
2018-09-29T17:11:41.177Z,14.30
2018-09-29T17:14:09.742Z,14.30
2018-09-29T17:16:38.428Z,14.10
2018-09-29T17:19:07.553Z,13.80
2018-09-29T17:21:36.142Z,13.80
2018-09-29T17:24:04.677Z,13.70
2018-09-29T17:26:33.136Z,13.60
2018-09-29T17:29:01.680Z,13.60
2018-09-29T17:31:30.373Z,13.50
2018-09-29T17:33:58.825Z,13.50
2018-09-29T17:36:27.344Z,13.20
2018-09-29T17:38:55.906Z,13.20
2018-09-29T17:41:24.478Z,13.30
2018-09-29T17:43:52.948Z,13.20
2018-09-29T17:46:21.468Z,13.10
2018-09-29T17:48:50.021Z,13.00
2018-09-29T17:51:19.348Z,12.90
2018-09-29T17:53:47.849Z,12.80
2018-09-29T17:56:16.480Z,12.70
2018-09-29T17:58:45.097Z,12.70
2018-09-29T18:01:13.637Z,12.60
2018-09-29T18:03:42.156Z,12.60
2018-09-29T18:06:10.953Z,12.50
2018-09-29T18:08:39.629Z,12.50
2018-09-29T18:11:08.187Z,12.40
2018-09-29T18:13:36.783Z,12.30
2018-09-29T18:16:05.384Z,12.20
2018-09-29T18:18:33.962Z,12.10
2018-09-29T18:21:02.433Z,12.20
2018-09-29T18:23:30.865Z,12.20
2018-09-29T18:25:59.424Z,12.10
2018-09-29T18:28:27.950Z,12.10
2018-09-29T18:30:56.547Z,12.00
2018-09-29T18:33:25.029Z,11.90
2018-09-29T18:35:53.633Z,11.80
2018-09-29T18:38:22.119Z,11.80
2018-09-29T18:40:50.648Z,11.80
2018-09-29T18:43:19.196Z,11.70
2018-09-29T18:45:47.739Z,11.60
2018-09-29T18:48:16.212Z,11.50
2018-09-29T18:50:44.781Z,11.50
2018-09-29T18:53:13.223Z,11.50
2018-09-29T18:55:41.942Z,11.40
2018-09-29T18:58:10.480Z,11.40
2018-09-29T19:00:38.968Z,11.30
2018-09-29T19:03:07.720Z,11.30
2018-09-29T19:05:36.307Z,11.20
2018-09-29T19:08:04.936Z,11.10
2018-09-29T19:10:33.415Z,11.10
2018-09-29T19:13:02.097Z,11.00
2018-09-29T19:15:30.698Z,11.00
2018-09-29T19:17:59.295Z,10.90
2018-09-29T19:20:28.156Z,10.80
2018-09-29T19:22:56.722Z,10.80
2018-09-29T19:25:25.426Z,10.80
2018-09-29T19:27:54.094Z,10.70
2018-09-29T19:30:22.696Z,10.70
2018-09-29T19:32:51.205Z,10.70
2018-09-29T19:35:19.977Z,10.60
2018-09-29T19:37:48.676Z,10.50
2018-09-29T19:40:17.291Z,10.40
2018-09-29T19:42:46.072Z,10.40
2018-09-29T19:45:14.665Z,10.30
2018-09-29T19:47:43.382Z,10.30
2018-09-29T19:50:12.001Z,10.20
2018-09-29T19:52:40.926Z,10.10
2018-09-29T19:55:09.620Z,10.10
2018-09-29T19:57:38.400Z,10.10
2018-09-29T20:00:07.392Z,10.00
2018-09-29T20:02:36.567Z,10.00
2018-09-29T20:05:05.849Z,9.90
2018-09-29T20:07:34.825Z,9.80
2018-09-29T20:10:03.413Z,9.80
2018-09-29T20:12:31.950Z,9.80
2018-09-29T20:15:00.670Z,9.70
2018-09-29T20:17:29.282Z,9.70
2018-09-29T20:19:57.948Z,9.60
2018-09-29T20:22:26.938Z,9.50
2018-09-29T20:24:55.758Z,9.50
2018-09-29T20:27:24.406Z,9.40
2018-09-29T20:29:53.030Z,9.50
2018-09-29T20:32:21.844Z,9.40
2018-09-29T20:34:50.871Z,9.40
2018-09-29T20:37:19.818Z,9.30
2018-09-29T20:39:48.958Z,9.30
2018-09-29T20:42:17.747Z,9.30
2018-09-29T20:44:46.392Z,9.20
2018-09-29T20:47:15.188Z,9.20
2018-09-29T20:49:43.977Z,9.20
2018-09-29T20:52:12.527Z,9.10
2018-09-29T20:54:41.233Z,9.10
2018-09-29T20:57:09.676Z,9.00
2018-09-29T20:59:38.582Z,8.90
2018-09-29T21:02:07.365Z,8.90
2018-09-29T21:04:36.020Z,8.90
2018-09-29T21:07:04.512Z,8.80
2018-09-29T21:09:33.141Z,8.80
2018-09-29T21:12:01.830Z,8.80
2018-09-29T21:14:30.420Z,8.70
2018-09-29T21:16:59.126Z,8.80
2018-09-29T21:19:27.617Z,8.70
2018-09-29T21:21:56.105Z,8.70
2018-09-29T21:24:24.719Z,8.60
2018-09-29T21:26:53.320Z,8.70
2018-09-29T21:29:22.128Z,8.60
2018-09-29T21:31:50.873Z,8.60
2018-09-29T21:34:19.604Z,8.50
2018-09-29T21:36:48.356Z,8.50
2018-09-29T21:39:17.078Z,8.50
2018-09-29T21:41:45.764Z,8.50
2018-09-29T21:44:14.418Z,8.40
2018-09-29T21:46:43.013Z,8.40
2018-09-29T21:49:11.767Z,8.40
2018-09-29T21:51:40.609Z,8.40
2018-09-29T21:54:09.382Z,8.40
2018-09-29T21:56:38.327Z,8.30
2018-09-29T21:59:06.953Z,8.20
2018-09-29T22:01:35.488Z,8.20
2018-09-29T22:04:04.369Z,8.20
2018-09-29T22:06:33.096Z,8.10
2018-09-29T22:09:01.850Z,8.10
2018-09-29T22:11:30.608Z,8.10
2018-09-29T22:13:59.389Z,8.00
2018-09-29T22:16:28.420Z,8.00
2018-09-29T22:18:57.120Z,8.00
2018-09-29T22:21:25.960Z,8.00
2018-09-29T22:23:54.836Z,8.10
2018-09-29T22:26:23.595Z,8.00
2018-09-29T22:28:52.572Z,8.00
2018-09-29T22:31:21.488Z,7.90
2018-09-29T22:33:50.349Z,7.90
2018-09-29T22:36:19.364Z,7.90
2018-09-29T22:38:48.202Z,7.80
2018-09-29T22:41:17.077Z,7.80
2018-09-29T22:43:46.018Z,7.70
2018-09-29T22:46:14.718Z,7.70
2018-09-29T22:48:43.489Z,7.60
2018-09-29T22:51:12.341Z,7.60
2018-09-29T22:53:41.327Z,7.60
2018-09-29T22:56:10.141Z,7.50
2018-09-29T22:58:38.838Z,7.50
2018-09-29T23:01:08.355Z,7.50
2018-09-29T23:03:37.374Z,7.50
2018-09-29T23:06:06.305Z,7.40
2018-09-29T23:08:35.127Z,7.40
2018-09-29T23:11:07.847Z,7.40
2018-09-29T23:13:36.767Z,7.30
2018-09-29T23:16:05.303Z,7.30
2018-09-29T23:18:33.844Z,7.20
2018-09-29T23:21:02.429Z,7.20
2018-09-29T23:23:30.942Z,7.20
2018-09-29T23:25:59.355Z,7.20
2018-09-29T23:28:27.844Z,7.20
2018-09-29T23:30:56.353Z,7.10
2018-09-29T23:33:24.864Z,7.10
2018-09-29T23:35:53.380Z,7.10
2018-09-29T23:38:21.898Z,7.00
2018-09-29T23:40:50.395Z,7.10
2018-09-29T23:43:18.934Z,7.00
2018-09-29T23:45:47.495Z,7.00
2018-09-29T23:48:16.079Z,7.00
2018-09-29T23:50:44.616Z,6.90
2018-09-29T23:53:13.077Z,6.90
2018-09-29T23:55:41.767Z,6.90
2018-09-29T23:58:10.622Z,6.80
